Time;durP1;ratioP1;P1;durP2;ratioP2;P2;SDS_P1;SDS_P2;PMS_P1;PMS_P2;Temp;Humidity;BMP_temperature;BMP_pressure;BME280_temperature;BME280_humidity;BME280_pressure;Samples;Min_cycle;Max_cycle;Signal;HPM_P1;HPM_P2
2023/04/16 00:00:25;;;;;;;8.68;4.28;;;;;;;9.86;62.23;99447.47;7738482;32;37787;-84
2023/04/16 00:04:41;;;;;;;7.37;4.60;;;;;;;9.82;61.79;99460.03;7738402;32;37125;-83
2023/04/16 00:08:58;;;;;;;8.95;4.68;;;;;;;9.90;61.40;99451.28;7738322;32;39384;-83
2023/04/16 00:13:14;;;;;;;8.73;4.70;;;;;;;9.67;61.86;99452.69;7738167;32;39720;-84
2023/04/16 00:17:30;;;;;;;7.82;4.80;;;;;;;9.86;61.04;99461.91;7724267;32;37525;-83
2023/04/16 00:21:47;;;;;;;8.77;4.95;;;;;;;9.59;61.76;99463.03;7738075;32;37827;-84
2023/04/16 00:26:03;;;;;;;7.72;4.75;;;;;;;9.61;61.94;99470.09;7738213;32;39444;-83
2023/04/16 00:30:19;;;;;;;9.43;4.78;;;;;;;9.57;62.46;99478.00;7737867;32;39900;-84
2023/04/16 00:34:36;;;;;;;7.85;5.05;;;;;;;9.65;62.43;99476.63;7737859;32;39111;-83
2023/04/16 00:38:52;;;;;;;8.18;4.72;;;;;;;9.63;62.48;99478.81;7724165;32;36837;-83
2023/04/16 00:43:09;;;;;;;9.93;5.25;;;;;;;9.61;62.05;99476.38;7746621;32;39296;-83
2023/04/16 00:47:26;;;;;;;8.23;5.43;;;;;;;9.28;62.49;99475.81;7764572;32;40825;-84
2023/04/16 00:51:43;;;;;;;12.02;5.25;;;;;;;9.54;61.53;99471.19;7751245;32;37921;-83
2023/04/16 00:56:01;;;;;;;8.45;5.22;;;;;;;9.39;61.34;99469.28;7764581;32;37150;-82
2023/04/16 01:00:20;;;;;;;8.82;5.22;;;;;;;9.61;65.20;99472.81;7750377;32;39302;-83
2023/04/16 01:04:36;;;;;;;9.20;5.62;;;;;;;9.58;63.37;99476.91;7764060;32;39826;-83
2023/04/16 01:08:52;;;;;;;7.45;4.93;;;;;;;9.58;62.08;99483.16;7764286;32;38393;-83
2023/04/16 01:13:08;;;;;;;8.82;5.55;;;;;;;9.49;61.49;99486.72;7756163;32;37858;-83
2023/04/16 01:17:25;;;;;;;8.35;4.90;;;;;;;9.42;61.06;99491.59;7737273;32;39388;-83
2023/04/16 01:21:41;;;;;;;8.30;5.30;;;;;;;9.19;61.26;99480.97;7737015;32;39939;-83
2023/04/16 01:25:57;;;;;;;8.35;4.78;;;;;;;9.14;61.76;99488.28;7737805;32;37807;-83
2023/04/16 01:30:14;;;;;;;8.38;5.00;;;;;;;9.35;60.71;99478.28;7736899;32;37904;-82
2023/04/16 01:34:30;;;;;;;8.60;5.35;;;;;;;9.13;60.85;99478.53;7736876;32;39144;-83
2023/04/16 01:38:46;;;;;;;10.40;5.47;;;;;;;9.15;60.81;99470.91;7736743;32;39890;-83
2023/04/16 01:43:03;;;;;;;8.13;4.65;;;;;;;8.95;62.15;99469.78;7759891;32;37769;-83
2023/04/16 01:47:20;;;;;;;8.57;4.60;;;;;;;9.08;62.57;99473.88;7763332;32;37047;-83
2023/04/16 01:51:36;;;;;;;8.80;5.25;;;;;;;8.97;61.98;99478.50;7763493;32;39864;-83
2023/04/16 01:55:52;;;;;;;8.60;5.45;;;;;;;8.84;62.50;99490.69;7749220;32;39672;-83
2023/04/16 02:00:09;;;;;;;9.98;5.45;;;;;;;8.74;62.65;99500.72;7763319;32;37829;-84
2023/04/16 02:04:25;;;;;;;8.63;5.00;;;;;;;8.73;62.53;99497.19;7762950;32;38145;-84
2023/04/16 02:08:42;;;;;;;9.35;5.70;;;;;;;8.94;61.46;99495.34;7762940;32;40096;-83
2023/04/16 02:12:58;;;;;;;7.65;5.03;;;;;;;8.81;61.38;99501.28;7741616;32;40068;-84
2023/04/16 02:17:14;;;;;;;9.40;5.50;;;;;;;8.92;60.79;99508.38;7739542;32;38653;-83
2023/04/16 02:21:30;;;;;;;10.98;5.87;;;;;;;8.87;60.32;99507.56;7739549;32;37822;-83
2023/04/16 02:25:47;;;;;;;9.20;5.12;;;;;;;8.54;61.34;99502.28;7739622;32;39440;-84
2023/04/16 02:30:03;;;;;;;8.57;5.47;;;;;;;8.84;60.63;99506.19;7739413;32;40085;-83
2023/04/16 02:34:20;;;;;;;7.30;5.30;;;;;;;8.72;61.46;99505.59;7739189;32;38610;-83
2023/04/16 02:38:36;;;;;;;9.35;5.40;;;;;;;8.57;62.58;99503.63;7739334;32;37771;-83
2023/04/16 02:42:53;;;;;;;9.40;5.15;;;;;;;8.44;63.72;99494.09;7739206;32;39065;-84
2023/04/16 02:47:09;;;;;;;8.15;5.32;;;;;;;8.49;63.79;99504.97;7738955;32;40801;-83
2023/04/16 02:51:26;;;;;;;7.57;4.70;;;;;;;8.31;64.32;99510.81;7739228;32;37856;-82
2023/04/16 02:55:51;;;;;;;11.55;5.87;;;;;;;8.48;63.46;99514.19;7739086;32;37075;-83
2023/04/16 03:00:08;;;;;;;10.88;5.60;;;;;;;8.48;62.90;99516.91;7739212;32;40030;-84
2023/04/16 03:04:25;;;;;;;9.13;5.47;;;;;;;8.40;62.47;99522.81;7738997;32;40810;-84
2023/04/16 03:08:41;;;;;;;23.48;6.50;;;;;;;8.35;62.17;99528.25;7748353;32;37997;-83
2023/04/16 03:12:57;;;;;;;8.07;5.37;;;;;;;7.90;62.90;99525.78;7765861;32;37121;-84
2023/04/16 03:17:14;;;;;;;7.93;4.85;;;;;;;8.25;61.79;99532.50;7765666;32;40155;-83
2023/04/16 03:21:30;;;;;;;8.35;4.55;;;;;;;8.25;61.67;99532.50;7765870;32;39811;-84
2023/04/16 03:25:47;;;;;;;7.72;4.60;;;;;;;8.49;60.88;99534.84;7765174;32;37834;-84
2023/04/16 03:30:03;;;;;;;8.32;4.97;;;;;;;8.27;61.59;99538.50;7765676;32;37933;-84
2023/04/16 03:34:19;;;;;;;8.45;5.07;;;;;;;8.17;62.18;99546.59;7765627;32;39310;-83
2023/04/16 03:38:36;;;;;;;10.63;4.82;;;;;;;8.19;62.37;99549.88;7757961;32;40855;-83
2023/04/16 03:42:52;;;;;;;5.95;3.97;;;;;;;8.46;61.12;99538.91;7738533;32;37605;-84
2023/04/16 03:47:08;;;;;;;7.45;4.62;;;;;;;8.20;61.70;99546.06;7738896;32;37916;-84
2023/04/16 03:51:25;;;;;;;7.37;4.82;;;;;;;8.20;62.11;99553.41;7738499;32;40073;-84
2023/04/16 03:55:41;;;;;;;7.55;4.37;;;;;;;8.23;62.13;99550.97;7738375;32;39985;-83
2023/04/16 03:59:58;;;;;;;7.72;4.87;;;;;;;8.50;61.51;99569.06;7738360;32;37845;-83
2023/04/16 04:04:14;;;;;;;7.78;5.00;;;;;;;8.20;62.37;99570.50;7738413;32;36733;-84
2023/04/16 04:08:30;;;;;;;7.07;4.75;;;;;;;8.18;62.28;99577.28;7725278;32;39250;-84
2023/04/16 04:12:47;;;;;;;7.68;4.72;;;;;;;8.12;62.66;99578.31;7724202;32;40954;-83
2023/04/16 04:17:03;;;;;;;6.57;4.47;;;;;;;8.09;62.29;99587.81;7738158;32;37847;-83
2023/04/16 04:21:19;;;;;;;7.95;5.18;;;;;;;8.29;61.52;99595.28;7738108;32;37026;-83
2023/04/16 04:25:36;;;;;;;6.75;4.45;;;;;;;8.05;62.40;99600.25;7738414;32;39396;-83
2023/04/16 04:29:53;;;;;;;8.05;5.10;;;;;;;8.25;62.27;99597.69;7738051;32;39655;-84
2023/04/16 04:34:09;;;;;;;13.70;5.57;;;;;;;8.49;61.78;99601.97;7737791;32;37904;-83
2023/04/16 04:38:25;;;;;;;7.57;5.03;;;;;;;8.51;61.89;99602.53;7731018;32;38036;-83
2023/04/16 04:42:41;;;;;;;6.53;4.55;;;;;;;8.43;62.85;99596.50;7751018;32;39259;-83
2023/04/16 04:46:58;;;;;;;7.68;4.85;;;;;;;8.24;62.69;99597.97;7764707;32;41251;-83
2023/04/16 04:51:14;;;;;;;7.78;5.10;;;;;;;8.26;62.54;99599.34;7764547;32;37721;-84
2023/04/16 04:55:30;;;;;;;7.90;5.03;;;;;;;8.38;62.18;99606.47;7764480;32;37797;-84
2023/04/16 04:59:47;;;;;;;8.52;5.32;;;;;;;8.32;62.52;99612.97;7764642;32;39419;-82
2023/04/16 05:04:03;;;;;;;6.60;4.70;;;;;;;8.41;62.48;99609.47;7764453;32;39991;-83
2023/04/16 05:08:20;;;;;;;8.05;5.37;;;;;;;8.75;65.27;99605.63;7762935;32;38502;-83
2023/04/16 05:12:36;;;;;;;9.23;5.53;;;;;;;8.53;64.04;99620.19;7752081;32;37879;-82
2023/04/16 05:16:52;;;;;;;7.93;5.32;;;;;;;8.78;63.17;99610.56;7737418;32;40181;-83
2023/04/16 05:21:09;;;;;;;8.35;5.53;;;;;;;8.61;63.16;99619.69;7737951;32;40003;-83
2023/04/16 05:25:25;;;;;;;10.63;6.28;;;;;;;8.78;62.53;99621.44;7764117;32;37885;-82
2023/04/16 05:29:41;;;;;;;10.07;7.00;;;;;;;8.68;63.14;99624.09;7757624;32;37804;-83
2023/04/16 05:33:57;;;;;;;12.05;5.47;;;;;;;8.95;62.84;99624.78;7736735;32;39347;-83
2023/04/16 05:38:13;;;;;;;11.57;6.93;;;;;;;8.94;63.48;99622.31;7736793;32;40757;-82
2023/04/16 05:42:29;;;;;;;15.13;8.70;;;;;;;9.12;63.94;99621.81;7754508;32;37981;-82
2023/04/16 05:46:46;;;;;;;22.27;11.52;;;;;;;9.38;63.25;99632.78;7763644;32;37196;-81
2023/04/16 05:51:02;;;;;;;19.15;10.60;;;;;;;9.55;63.76;99635.28;7766176;32;39137;-80
2023/04/16 05:55:18;;;;;;;13.02;7.45;;;;;;;9.84;63.50;99632.91;7766751;32;40816;-80
2023/04/16 05:59:35;;;;;;;10.43;6.25;;;;;;;10.00;63.44;99627.47;7766851;32;37942;-80
2023/04/16 06:03:51;;;;;;;12.10;6.28;;;;;;;10.22;63.13;99616.28;7766833;32;37189;-80
2023/04/16 06:08:07;;;;;;;12.45;7.35;;;;;;;10.31;63.25;99618.22;7748348;32;40023;-80
2023/04/16 06:12:24;;;;;;;11.65;7.07;;;;;;;10.57;62.51;99623.62;7739752;32;40108;-80
2023/04/16 06:16:40;;;;;;;9.43;6.15;;;;;;;10.74;62.36;99631.50;7739593;32;37544;-80
2023/04/16 06:20:58;;;;;;;9.25;6.30;;;;;;;10.06;63.39;99643.53;7739605;32;37576;-80
2023/04/16 06:25:14;;;;;;;10.15;5.43;;;;;;;10.49;62.87;99644.09;7739660;32;39101;-80
2023/04/16 06:29:33;;;;;;;7.95;5.00;;;;;;;10.58;62.02;99662.62;7739658;32;39999;-80
2023/04/16 06:33:56;;;;;;;7.90;4.45;;;;;;;10.59;61.84;99659.63;7740094;32;37669;-79
2023/04/16 06:38:13;;;;;;;9.10;5.12;;;;;;;10.80;63.74;99654.12;7739261;32;37158;-80
2023/04/16 06:42:29;;;;;;;8.02;5.10;;;;;;;11.05;62.54;99645.03;7739406;32;39461;-79
2023/04/16 06:46:45;;;;;;;7.40;4.65;;;;;;;11.04;62.17;99648.88;7739094;32;40038;-80
2023/04/16 06:51:02;;;;;;;8.13;4.80;;;;;;;11.26;61.83;99646.59;7741789;32;38765;-80
2023/04/16 06:55:18;;;;;;;6.97;4.30;;;;;;;11.23;62.01;99658.06;7764559;32;36744;-79
2023/04/16 06:59:35;;;;;;;6.95;4.60;;;;;;;10.97;62.25;99654.62;7738575;32;40002;-80
2023/04/16 07:03:51;;;;;;;7.25;4.68;;;;;;;10.83;61.61;99657.13;7738971;32;40140;-81
2023/04/16 07:08:08;;;;;;;9.60;4.57;;;;;;;10.97;61.94;99664.69;7725702;32;37951;-78
2023/04/16 07:12:24;;;;;;;6.35;4.72;;;;;;;11.36;61.14;99661.28;7747398;32;36781;-77
2023/04/16 07:16:40;;;;;;;6.18;4.10;;;;;;;11.26;61.46;99656.69;7739030;32;39809;-76
2023/04/16 07:20:57;;;;;;;6.28;4.22;;;;;;;11.68;60.62;99660.03;7738926;32;40907;-75
2023/04/16 07:25:13;;;;;;;7.60;4.30;;;;;;;11.83;60.35;99655.28;7738803;32;38698;-79
2023/04/16 07:29:29;;;;;;;6.22;4.35;;;;;;;11.87;60.71;99660.19;7738855;32;37741;-79
2023/04/16 07:33:46;;;;;;;6.62;3.90;;;;;;;11.68;59.94;99666.31;7739506;32;39393;-81
2023/04/16 07:38:02;;;;;;;7.57;4.18;;;;;;;11.87;59.75;99666.47;7765292;32;39840;-80
2023/04/16 07:42:18;;;;;;;6.35;3.30;;;;;;;12.14;59.10;99668.78;7750806;32;38350;-80
2023/04/16 07:46:34;;;;;;;5.32;3.50;;;;;;;12.20;59.00;99670.34;7765552;32;36828;-79
2023/04/16 07:51:01;;;;;;;5.45;3.25;;;;;;;11.95;59.25;99665.91;7752578;32;40051;-81
2023/04/16 07:55:17;;;;;;;7.80;3.55;;;;;;;12.24;58.99;99667.84;7757161;32;40823;-81
2023/04/16 07:59:33;;;;;;;7.78;3.20;;;;;;;11.52;60.23;99670.22;7765378;32;37913;-79
2023/04/16 08:03:50;;;;;;;4.55;3.17;;;;;;;12.20;58.79;99664.88;7765359;32;37059;-79
2023/04/16 08:08:07;;;;;;;4.32;3.25;;;;;;;12.16;58.47;99658.37;7727676;32;374465;-80
2023/04/16 08:12:23;;;;;;;4.47;2.95;;;;;;;12.85;57.20;99660.19;7741115;32;40126;-81
2023/04/16 08:16:40;;;;;;;4.20;3.08;;;;;;;13.25;56.35;99652.63;7738162;32;37885;-80
2023/04/16 08:20:57;;;;;;;5.12;3.03;;;;;;;13.31;55.34;99656.91;7724296;32;37072;-80
2023/04/16 08:25:13;;;;;;;9.15;3.28;;;;;;;13.65;55.79;99648.53;7765046;32;39596;-85
2023/04/16 08:29:29;;;;;;;6.45;3.17;;;;;;;13.82;55.22;99648.03;7764941;32;40024;-86
2023/04/16 08:33:46;;;;;;;5.18;3.10;;;;;;;13.73;55.35;99646.25;7745345;32;37905;-80
2023/04/16 08:38:03;;;;;;;4.85;3.17;;;;;;;14.49;53.37;99646.12;7747788;32;37568;-80
2023/04/16 08:42:39;;;;;;;6.53;3.47;;;;;;;14.26;52.79;99649.53;7751427;32;40006;-79
2023/04/16 08:46:57;;;;;;;5.85;3.17;;;;;;;14.60;52.69;99645.69;7739585;32;39935;-81
2023/04/16 08:51:16;;;;;;;4.62;2.85;;;;;;;14.77;51.57;99644.28;7746634;32;38847;-79
2023/04/16 08:55:37;;;;;;;4.18;2.67;;;;;;;15.42;48.69;99647.91;7745330;32;36153;-79
2023/04/16 08:59:54;;;;;;;4.47;2.65;;;;;;;15.38;48.78;99651.31;7735339;32;39956;-80
2023/04/16 09:04:12;;;;;;;5.35;2.53;;;;;;;15.80;47.32;99648.50;7735182;32;39777;-79
2023/04/16 09:08:29;;;;;;;5.28;2.90;;;;;;;16.33;47.16;99644.19;7741138;32;37771;-79
2023/04/16 09:12:46;;;;;;;4.82;2.30;;;;;;;16.27;46.46;99650.97;7750541;32;37064;-83
2023/04/16 09:17:03;;;;;;;3.00;2.30;;;;;;;17.01;45.94;99642.16;7764355;32;39133;-79
2023/04/16 09:21:19;;;;;;;3.28;2.10;;;;;;;17.29;46.11;99646.59;7750210;32;40009;-80
2023/04/16 09:25:39;;;;;;;3.05;1.90;;;;;;;17.81;44.26;99653.00;7764205;32;37363;-76
2023/04/16 09:29:55;;;;;;;4.45;1.87;;;;;;;18.10;42.88;99648.00;7751736;32;37151;-77
2023/04/16 09:34:11;;;;;;;4.30;1.95;;;;;;;17.74;43.12;99657.37;7738228;32;39315;-76
2023/04/16 09:38:46;;;;;;;3.53;1.87;;;;;;;18.62;40.43;99658.94;7748390;32;39908;-76
2023/04/16 09:43:10;;;;;;;2.80;1.60;;;;;;;18.66;39.16;99661.88;7724742;32;38035;-76
2023/04/16 09:47:40;;;;;;;3.10;1.60;;;;;;;18.32;39.53;99656.09;7722930;32;37808;-76
2023/04/16 09:51:58;;;;;;;3.40;1.83;;;;;;;18.86;39.40;99652.09;7736217;32;39025;-76
2023/04/16 09:56:15;;;;;;;5.50;1.62;;;;;;;18.99;40.22;99662.12;7736291;32;40277;-77
2023/04/16 10:00:31;;;;;;;2.97;1.50;;;;;;;18.92;38.07;99653.53;7736264;32;36981;-76
2023/04/16 10:04:49;;;;;;;2.00;1.30;;;;;;;19.01;37.78;99659.84;7736177;32;37117;-76
2023/04/16 10:09:09;;;;;;;1.62;1.30;;;;;;;18.81;36.22;99655.00;7721475;32;38404;-77
2023/04/16 10:13:30;;;;;;;1.67;1.58;;;;;;;19.13;35.82;99657.19;7736045;32;40737;-76
2023/04/16 10:17:46;;;;;;;3.53;1.30;;;;;;;19.22;36.58;99653.56;7735888;32;38662;-77
2023/04/16 10:22:04;;;;;;;3.80;1.60;;;;;;;19.31;36.56;99654.31;7722496;32;37908;-76
2023/04/16 10:26:21;;;;;;;2.03;1.40;;;;;;;19.31;36.97;99657.09;7735682;32;39343;-76
2023/04/16 10:30:38;;;;;;;2.45;1.62;;;;;;;19.58;35.46;99646.69;7709298;32;39896;-77
2023/04/16 10:34:55;;;;;;;1.70;1.45;;;;;;;19.98;34.46;99640.72;7737483;32;37702;-77
2023/04/16 10:39:13;;;;;;;2.72;1.50;;;;;;;20.03;37.00;99646.03;7739342;32;36807;-76
2023/04/16 10:43:39;;;;;;;2.83;1.92;;;;;;;19.92;36.24;99642.06;7726176;32;40038;-77
2023/04/16 10:47:57;;;;;;;1.85;1.27;;;;;;;19.91;37.38;99648.75;7739341;32;40760;-77
2023/04/16 10:52:18;;;;;;;1.65;1.40;;;;;;;20.08;33.95;99637.53;7744000;32;38285;-77
2023/04/16 10:56:35;;;;;;;1.75;1.40;;;;;;;19.81;35.62;99642.47;7740709;32;37552;-77
2023/04/16 11:00:52;;;;;;;1.30;1.20;;;;;;;19.84;36.52;99647.31;7763392;32;40089;-76
2023/04/16 11:05:08;;;;;;;1.20;1.10;;;;;;;19.80;35.28;99637.25;7743798;32;39967;-81
2023/04/16 11:09:46;;;;;;;1.25;1.10;;;;;;;19.87;36.48;99632.81;7739168;32;38009;-81
2023/04/16 11:14:03;;;;;;;1.12;1.02;;;;;;;20.21;32.46;99633.69;7739640;32;37345;-81
2023/04/16 11:18:19;;;;;;;3.42;1.30;;;;;;;19.58;33.80;99641.97;7741113;32;39270;-80
2023/04/16 11:22:37;;;;;;;1.37;1.00;;;;;;;19.61;35.82;99641.28;7739066;32;40878;-81
2023/04/16 11:26:53;;;;;;;2.05;0.88;;;;;;;19.86;35.25;99641.47;7742290;32;37934;-82
2023/04/16 11:31:11;;;;;;;11.40;1.52;;;;;;;19.58;33.73;99644.72;7750789;32;37050;-78
2023/04/16 11:35:27;;;;;;;0.80;0.80;;;;;;;19.64;33.64;99642.56;7743351;32;38349;-79
2023/04/16 11:39:53;;;;;;;1.17;0.88;;;;;;;19.61;34.72;99644.06;7738706;32;40015;-77
2023/04/16 11:44:23;;;;;;;1.52;0.98;;;;;;;19.82;34.97;99632.22;7739515;32;38731;-76
2023/04/16 11:48:50;;;;;;;1.40;1.00;;;;;;;19.64;34.44;99631.50;7759650;32;37720;-75
2023/04/16 11:53:06;;;;;;;2.67;1.30;;;;;;;19.35;35.78;99633.19;7763545;32;39301;-77
2023/04/16 11:57:30;;;;;;;2.20;1.15;;;;;;;19.63;35.49;99629.91;7760950;32;40131;-75
2023/04/16 12:02:04;;;;;;;2.37;1.20;;;;;;;19.83;33.19;99623.59;7754471;32;37496;-75
2023/04/16 12:06:21;;;;;;;1.17;0.90;;;;;;;19.57;35.16;99629.28;7745952;32;37131;-75
2023/04/16 12:10:55;;;;;;;1.35;1.10;;;;;;;20.29;33.04;99611.78;7734491;32;40140;-75
2023/04/16 12:15:11;;;;;;;2.33;1.10;;;;;;;20.53;33.87;99606.28;7751236;32;39909;-74
2023/04/16 12:19:27;;;;;;;1.10;1.05;;;;;;;20.61;33.87;99602.63;7736006;32;38698;-75
2023/04/16 12:23:44;;;;;;;3.30;1.12;;;;;;;21.21;35.06;99593.88;7749791;32;37095;-75
2023/04/16 12:28:01;;;;;;;2.55;1.40;;;;;;;21.76;33.23;99597.16;7736625;32;39632;-76
2023/04/16 12:32:23;;;;;;;2.42;1.20;;;;;;;21.41;32.65;99594.91;7746696;32;40532;-76
2023/04/16 12:36:40;;;;;;;4.50;1.00;;;;;;;21.37;33.41;99589.25;7749353;32;37795;-76
2023/04/16 12:40:57;;;;;;;5.37;1.10;;;;;;;21.67;34.00;99583.41;7745235;32;36817;-75
2023/04/16 12:45:13;;;;;;;2.03;1.25;;;;;;;21.62;33.30;99578.12;7724189;32;39636;-76
2023/04/16 12:49:29;;;;;;;1.48;0.80;;;;;;;21.95;33.53;99577.06;7739043;32;40840;-75
2023/04/16 12:53:46;;;;;;;1.77;1.20;;;;;;;21.65;32.44;99577.44;7748520;32;38032;-75
2023/04/16 12:58:02;;;;;;;2.53;1.10;;;;;;;21.23;34.15;99571.34;7749341;32;37072;-76
2023/04/16 13:02:18;;;;;;;1.62;1.10;;;;;;;21.98;32.66;99576.38;7737723;32;39332;-75
2023/04/16 13:06:36;;;;;;;1.02;0.93;;;;;;;22.03;30.88;99570.56;7733020;32;40027;-76
2023/04/16 13:10:52;;;;;;;0.90;0.90;;;;;;;22.38;32.23;99566.37;7748838;32;38010;-75
2023/04/16 13:15:09;;;;;;;1.92;0.95;;;;;;;21.99;30.15;99550.25;7751481;32;37361;-76
2023/04/16 13:19:26;;;;;;;1.75;1.10;;;;;;;22.74;30.74;99556.97;7746715;32;39539;-80
2023/04/16 13:23:42;;;;;;;1.42;1.20;;;;;;;23.12;29.68;99558.28;7745588;32;40142;-80
2023/04/16 13:27:58;;;;;;;1.00;0.90;;;;;;;22.75;30.22;99558.59;7734808;32;38388;-77
2023/04/16 13:32:14;;;;;;;1.30;1.17;;;;;;;22.61;29.97;99564.59;7748094;32;36828;-78
2023/04/16 13:36:31;;;;;;;1.12;1.02;;;;;;;22.43;29.69;99566.91;7749256;32;39406;-78
2023/04/16 13:40:48;;;;;;;2.97;1.08;;;;;;;22.22;29.79;99561.56;7749571;32;40121;-78
2023/04/16 13:45:04;;;;;;;1.15;1.00;;;;;;;21.93;30.34;99554.44;7748863;32;39131;-78
2023/04/16 13:49:21;;;;;;;1.10;0.98;;;;;;;21.86;30.50;99559.78;7748249;32;37097;-77
2023/04/16 13:53:37;;;;;;;1.65;1.10;;;;;;;21.73;31.63;99568.16;7747263;32;39588;-78
2023/04/16 13:57:55;;;;;;;1.50;1.12;;;;;;;21.35;32.50;99563.84;7727471;32;40910;-75
2023/04/16 14:02:11;;;;;;;1.10;1.10;;;;;;;21.46;30.42;99552.28;7740817;32;38081;-77
2023/04/16 14:06:28;;;;;;;2.15;1.05;;;;;;;21.45;31.82;99550.63;7748769;32;37075;-75
2023/04/16 14:10:44;;;;;;;1.50;1.25;;;;;;;21.42;32.91;99554.94;7765790;32;39297;-73
2023/04/16 14:15:03;;;;;;;1.05;0.95;;;;;;;21.35;35.14;99552.75;7766595;32;39896;-78
2023/04/16 14:19:20;;;;;;;3.97;1.10;;;;;;;21.16;34.09;99550.59;7748111;32;38096;-78
2023/04/16 14:23:36;;;;;;;0.80;0.80;;;;;;;21.29;33.07;99548.59;7739699;32;37940;-78
2023/04/16 14:27:52;;;;;;;1.00;1.00;;;;;;;21.55;33.55;99550.19;7739698;32;39071;-77
2023/04/16 14:32:09;;;;;;;1.52;1.20;;;;;;;21.45;32.70;99545.09;7739452;32;40853;-76
2023/04/16 14:36:26;;;;;;;2.00;1.30;;;;;;;21.46;33.97;99535.63;7750692;32;37970;-76
2023/04/16 14:40:42;;;;;;;2.80;0.80;;;;;;;21.70;32.50;99530.03;7746001;32;37089;-77
2023/04/16 14:44:58;;;;;;;3.47;1.00;;;;;;;21.95;32.33;99524.34;7761881;32;38996;-77
2023/04/16 14:49:15;;;;;;;3.25;0.73;;;;;;;22.16;32.12;99517.75;7765161;32;40152;-77
2023/04/16 14:53:33;;;;;;;1.75;0.90;;;;;;;22.38;29.57;99519.16;7765483;32;38888;-77
2023/04/16 14:57:50;;;;;;;0.90;0.85;;;;;;;22.57;30.02;99516.44;7764889;32;37954;-77
2023/04/16 15:02:06;;;;;;;0.70;0.70;;;;;;;22.52;28.75;99510.38;7765720;32;40482;-77
2023/04/16 15:06:23;;;;;;;2.40;0.82;;;;;;;22.81;26.83;99512.66;7750009;32;40822;-76
2023/04/16 15:10:41;;;;;;;5.62;1.42;;;;;;;22.72;27.50;99517.62;7741126;32;37936;-76
2023/04/16 15:14:58;;;;;;;1.62;1.02;;;;;;;22.11;28.74;99511.31;7738825;32;36077;-77
2023/04/16 15:19:15;;;;;;;1.83;1.20;;;;;;;21.35;27.54;99518.66;7737874;32;39391;-76
2023/04/16 15:23:31;;;;;;;1.90;1.20;;;;;;;20.74;30.77;99519.56;7737660;32;40850;-77
2023/04/16 15:27:47;;;;;;;3.58;1.52;;;;;;;20.34;32.24;99520.22;7745224;32;37814;-77
2023/04/16 15:32:04;;;;;;;4.05;1.65;;;;;;;20.45;33.18;99518.59;7764240;32;36994;-77
2023/04/16 15:36:20;;;;;;;3.17;1.87;;;;;;;20.83;32.31;99517.47;7762805;32;40550;-76
2023/04/16 15:40:36;;;;;;;6.10;3.00;;;;;;;20.42;33.62;99522.06;7755272;32;39436;-76
2023/04/16 15:44:52;;;;;;;5.45;2.33;;;;;;;20.69;33.99;99525.34;7763129;32;38588;-77
2023/04/16 15:49:09;;;;;;;4.72;1.85;;;;;;;20.00;35.70;99528.53;7747646;32;37929;-77
2023/04/16 15:53:25;;;;;;;1.65;1.30;;;;;;;19.74;37.01;99528.81;7747641;32;39353;-77
2023/04/16 15:57:42;;;;;;;2.83;1.10;;;;;;;20.31;36.62;99526.44;7741946;32;39875;-77
2023/04/16 16:01:58;;;;;;;1.20;0.90;;;;;;;20.35;36.09;99525.41;7746598;32;38851;-77
2023/04/16 16:06:16;;;;;;;1.27;0.95;;;;;;;20.35;36.18;99522.66;7732278;32;36797;-76
2023/04/16 16:10:33;;;;;;;2.35;1.10;;;;;;;20.16;35.06;99525.97;7746287;32;38183;-77
2023/04/16 16:14:49;;;;;;;1.70;1.00;;;;;;;19.91;36.10;99530.59;7765350;32;40105;-77
2023/04/16 16:19:06;;;;;;;3.20;1.20;;;;;;;19.84;35.45;99527.59;7741315;32;37901;-78
2023/04/16 16:23:22;;;;;;;1.80;1.25;;;;;;;19.66;36.05;99532.41;7737699;32;37664;-77
2023/04/16 16:27:39;;;;;;;4.10;1.40;;;;;;;19.70;36.48;99534.19;7737420;32;39306;-77
2023/04/16 16:31:55;;;;;;;4.45;1.30;;;;;;;19.46;36.21;99534.06;7737856;32;40403;-77
2023/04/16 16:36:12;;;;;;;3.95;1.70;;;;;;;19.29;37.28;99538.56;7738169;32;38753;-77
2023/04/16 16:40:29;;;;;;;2.12;1.60;;;;;;;18.92;38.43;99541.09;7737989;32;37652;-77
2023/04/16 16:44:47;;;;;;;3.62;1.52;;;;;;;18.70;38.93;99555.97;7738002;32;40059;-77
2023/04/16 16:49:04;;;;;;;2.67;1.52;;;;;;;18.86;39.28;99547.16;7737772;32;39947;-77
2023/04/16 16:53:21;;;;;;;4.12;2.10;;;;;;;18.67;39.78;99556.63;7738040;32;38053;-78
2023/04/16 16:57:38;;;;;;;1.83;1.67;;;;;;;18.27;41.20;99550.63;7737813;32;37858;-78
2023/04/16 17:01:54;;;;;;;5.78;1.98;;;;;;;18.04;42.23;99561.03;7738631;32;39044;-79
2023/04/16 17:06:11;;;;;;;2.20;1.80;;;;;;;17.98;43.10;99566.72;7737538;32;40061;-77
2023/04/16 17:10:27;;;;;;;2.37;1.60;;;;;;;17.82;43.85;99554.56;7737505;32;37959;-77
2023/04/16 17:14:48;;;;;;;2.78;1.87;;;;;;;17.63;43.94;99561.22;7723967;32;37840;-77
2023/04/16 17:19:04;;;;;;;2.35;1.80;;;;;;;17.38;45.18;99562.00;7737531;32;39059;-77
2023/04/16 17:23:21;;;;;;;1.70;1.60;;;;;;;17.53;44.62;99569.81;7737245;32;40821;-77
2023/04/16 17:27:37;;;;;;;2.33;1.60;;;;;;;17.34;45.09;99564.59;7736870;32;37871;-78
2023/04/16 17:31:57;;;;;;;2.10;1.77;;;;;;;17.32;44.83;99577.09;7743355;32;36736;-76
2023/04/16 17:36:13;;;;;;;2.10;1.90;;;;;;;17.45;44.71;99576.94;7737117;32;39428;-76
2023/04/16 17:40:29;;;;;;;2.72;2.05;;;;;;;17.45;44.24;99587.97;7736913;32;40068;-81
2023/04/16 17:44:46;;;;;;;3.05;1.80;;;;;;;17.33;44.94;99581.47;7738321;32;37952;-79
2023/04/16 17:49:02;;;;;;;3.90;2.17;;;;;;;17.05;46.16;99587.25;7726164;32;36709;-81
2023/04/16 17:53:19;;;;;;;4.35;2.40;;;;;;;17.07;45.86;99585.81;7763616;32;40088;-81
2023/04/16 17:57:36;;;;;;;2.47;2.10;;;;;;;17.02;45.68;99587.88;7757447;32;40721;-77
2023/04/16 18:01:52;;;;;;;5.03;2.40;;;;;;;17.08;45.86;99586.59;7741564;32;38624;-78
2023/04/16 18:06:08;;;;;;;3.55;2.28;;;;;;;16.67;46.33;99598.72;7752893;32;36802;-77
2023/04/16 18:10:25;;;;;;;4.12;2.70;;;;;;;16.63;46.70;99598.56;7751704;32;40119;-76
2023/04/16 18:14:43;;;;;;;3.65;2.20;;;;;;;16.65;46.41;99595.50;7749817;32;40769;-77
2023/04/16 18:18:59;;;;;;;7.45;2.50;;;;;;;16.42;47.12;99595.56;7756078;32;38714;-76
2023/04/16 18:23:16;;;;;;;4.12;2.62;;;;;;;16.28;47.44;99597.56;7751584;32;37304;-78
2023/04/16 18:27:34;;;;;;;7.93;2.70;;;;;;;16.22;47.68;99609.81;7748497;32;39492;-79
2023/04/16 18:31:52;;;;;;;4.68;2.75;;;;;;;16.12;47.85;99613.63;7751543;32;40879;-78
2023/04/16 18:36:10;;;;;;;6.72;2.80;;;;;;;15.96;48.30;99613.22;7751818;32;36875;-80
2023/04/16 18:40:28;;;;;;;5.93;2.58;;;;;;;16.12;48.00;99611.69;7752327;32;37684;-81
2023/04/16 18:44:50;;;;;;;4.22;2.47;;;;;;;15.86;48.50;99613.44;7750988;32;39371;-82
2023/04/16 18:49:07;;;;;;;4.82;2.65;;;;;;;16.03;48.05;99615.53;7738117;32;39969;-82
2023/04/16 18:53:23;;;;;;;3.80;2.97;;;;;;;15.93;48.27;99609.12;7751802;32;37990;-80
2023/04/16 18:57:39;;;;;;;4.65;3.10;;;;;;;15.83;48.44;99611.31;7745456;32;37024;-81
2023/04/16 19:01:56;;;;;;;5.65;3.20;;;;;;;15.69;48.93;99611.34;7747382;32;39360;-78
2023/04/16 19:06:12;;;;;;;6.07;3.42;;;;;;;15.76;48.84;99614.50;7771978;32;39850;-78
2023/04/16 19:10:29;;;;;;;4.93;2.92;;;;;;;15.70;49.01;99621.22;7753760;32;37940;-79
2023/04/16 19:14:45;;;;;;;7.87;3.33;;;;;;;15.17;50.16;99630.88;7738950;32;37334;-78
2023/04/16 19:19:01;;;;;;;5.90;3.20;;;;;;;15.09;50.66;99628.84;7738996;32;39382;-77
2023/04/16 19:23:18;;;;;;;7.70;3.00;;;;;;;14.98;50.92;99629.03;7738964;32;39901;-77
2023/04/16 19:27:35;;;;;;;5.20;2.72;;;;;;;15.10;50.50;99630.47;7738841;32;38755;-80
2023/04/16 19:31:51;;;;;;;6.93;2.83;;;;;;;15.31;49.80;99622.63;7738787;32;37128;-77
2023/04/16 19:36:07;;;;;;;4.62;2.85;;;;;;;15.15;50.25;99617.44;7746112;32;40137;-77
2023/04/16 19:40:24;;;;;;;5.05;2.90;;;;;;;15.14;49.96;99623.25;7763264;32;39653;-79
2023/04/16 19:44:40;;;;;;;3.78;2.47;;;;;;;15.19;49.92;99618.47;7763298;32;38660;-78
2023/04/16 19:48:56;;;;;;;5.82;3.05;;;;;;;15.03;50.67;99617.97;7763279;32;36911;-78
2023/04/16 19:53:12;;;;;;;8.02;2.70;;;;;;;14.93;50.34;99620.91;7763318;32;39062;-79
2023/04/16 19:57:29;;;;;;;4.80;2.67;;;;;;;15.20;49.69;99619.28;7761044;32;40854;-78
2023/04/16 20:01:45;;;;;;;5.18;2.87;;;;;;;15.16;49.56;99618.25;7763027;32;37955;-77
2023/04/16 20:06:04;;;;;;;3.87;2.20;;;;;;;15.15;49.55;99622.94;7761235;32;37789;-79
2023/04/16 20:10:21;;;;;;;5.55;2.80;;;;;;;15.16;49.37;99616.34;7763450;32;38522;-79